createdAt,value
2022-12-20T00:25:50.798Z,89.60
2022-12-20T00:30:56.518Z,89.50
2022-12-20T00:33:24.648Z,89.30
2022-12-20T00:35:52.580Z,89.10
2022-12-20T00:38:29.172Z,89.50
2022-12-20T00:41:02.767Z,89.10
2022-12-20T00:43:31.130Z,88.90
2022-12-20T00:46:02.451Z,88.90
2022-12-20T00:53:26.567Z,88.80
2022-12-20T00:55:58.655Z,88.60
2022-12-20T00:58:27.135Z,88.80
2022-12-20T01:00:56.856Z,88.80
2022-12-20T01:03:25.593Z,88.60
2022-12-20T01:05:54.638Z,88.80
2022-12-20T01:08:25.331Z,88.60
2022-12-20T01:16:07.805Z,88.80
2022-12-20T01:18:36.654Z,88.90
2022-12-20T01:21:06.240Z,89.10
2022-12-20T01:23:34.209Z,89.30
2022-12-20T01:26:04.688Z,89.20
2022-12-20T01:28:33.471Z,89.40
2022-12-20T01:31:04.051Z,89.60
2022-12-20T01:33:33.305Z,89.70
2022-12-20T01:36:02.439Z,90.00
2022-12-20T01:38:30.903Z,90.10
2022-12-20T01:40:59.079Z,90.20
2022-12-20T01:43:45.402Z,90.30
2022-12-20T01:46:16.139Z,90.40
2022-12-20T01:48:49.942Z,90.40
2022-12-20T01:51:18.730Z,90.60
2022-12-20T01:53:51.312Z,90.70
2022-12-20T01:56:19.240Z,90.70
2022-12-20T01:58:53.089Z,90.80
2022-12-20T02:01:26.245Z,90.90
2022-12-20T02:03:56.957Z,91.00
2022-12-20T02:06:28.517Z,91.20
2022-12-20T02:08:59.589Z,91.10
2022-12-20T02:11:51.168Z,91.20
2022-12-20T02:14:32.321Z,91.20
2022-12-20T02:17:12.207Z,91.30
2022-12-20T02:20:12.804Z,91.30
2022-12-20T02:22:59.883Z,91.40
2022-12-20T02:25:45.980Z,91.50
2022-12-20T02:28:32.937Z,91.60
2022-12-20T02:31:06.028Z,91.70
2022-12-20T02:33:35.197Z,91.80
2022-12-20T02:36:04.703Z,91.90
2022-12-20T02:38:34.633Z,91.90
2022-12-20T02:41:06.128Z,92.00
2022-12-20T02:43:52.765Z,92.10
2022-12-20T02:46:25.967Z,92.20
2022-12-20T02:48:59.357Z,92.20
2022-12-20T02:51:31.421Z,92.20
2022-12-20T02:54:00.213Z,92.30
2022-12-20T02:56:33.323Z,92.50
2022-12-20T02:59:06.375Z,92.40
2022-12-20T03:01:42.331Z,92.40
2022-12-20T03:04:13.460Z,92.40
2022-12-20T03:08:57.430Z,92.40
2022-12-20T03:13:55.087Z,92.40
2022-12-20T03:16:25.705Z,92.40
2022-12-20T03:21:40.496Z,92.40
2022-12-20T03:24:08.658Z,92.50
2022-12-20T03:29:07.000Z,92.50
2022-12-20T03:31:36.232Z,92.40
2022-12-20T03:34:06.546Z,92.40
2022-12-20T03:55:57.131Z,92.60
2022-12-20T04:04:38.637Z,92.60
2022-12-20T04:07:06.574Z,92.60
2022-12-20T04:09:34.459Z,92.50
2022-12-20T04:12:02.308Z,92.40
2022-12-20T04:14:32.154Z,92.70
2022-12-20T04:17:00.160Z,92.40
2022-12-20T04:19:28.025Z,92.50
2022-12-20T04:22:04.737Z,92.40
2022-12-20T04:24:33.724Z,92.30
2022-12-20T04:27:01.560Z,92.20
2022-12-20T04:29:32.203Z,92.50
2022-12-20T04:32:00.219Z,92.20
2022-12-20T04:34:28.212Z,92.20
2022-12-20T04:36:57.380Z,92.20
2022-12-20T05:10:23.664Z,93.40
2022-12-20T05:31:22.062Z,93.60
2022-12-20T05:41:08.509Z,93.60
2022-12-20T05:46:04.583Z,93.40
2022-12-20T05:58:54.324Z,93.50
2022-12-20T06:07:55.204Z,93.70
2022-12-20T06:10:23.278Z,93.70
2022-12-20T06:13:00.238Z,93.60
2022-12-20T06:15:28.565Z,93.50
2022-12-20T06:17:57.037Z,93.30
2022-12-20T06:37:12.730Z,93.00
2022-12-20T06:43:54.572Z,93.10
2022-12-20T06:50:27.110Z,92.80
2022-12-20T06:52:55.145Z,92.90
2022-12-20T06:55:26.302Z,92.80
2022-12-20T06:57:57.384Z,92.70
2022-12-20T07:00:25.559Z,92.60
2022-12-20T07:02:53.670Z,92.60
2022-12-20T07:07:32.199Z,92.40
2022-12-20T07:22:59.199Z,91.90
2022-12-20T08:31:09.624Z,91.40
2022-12-20T08:59:08.997Z,91.20
2022-12-20T09:15:22.899Z,92.70
2022-12-20T09:17:54.102Z,92.80
2022-12-20T09:20:22.145Z,92.60
2022-12-20T09:22:50.337Z,92.20
2022-12-20T09:25:18.541Z,92.20
2022-12-20T09:27:50.981Z,92.00
2022-12-20T09:30:23.026Z,92.10
2022-12-20T09:33:08.586Z,92.00
2022-12-20T09:35:45.158Z,92.20
2022-12-20T09:38:13.197Z,92.30
2022-12-20T09:41:29.895Z,92.20
2022-12-20T09:43:59.660Z,92.50
2022-12-20T09:46:29.736Z,92.50
2022-12-20T09:51:27.045Z,92.50
2022-12-20T09:54:08.511Z,92.70
2022-12-20T09:56:38.681Z,92.80
2022-12-20T10:03:08.567Z,92.70
2022-12-20T10:06:37.800Z,93.00
2022-12-20T10:14:51.494Z,93.20
2022-12-20T10:17:32.820Z,93.60
2022-12-20T10:20:26.544Z,93.60
2022-12-20T10:23:00.112Z,93.60
2022-12-20T10:42:50.362Z,93.60
2022-12-20T10:48:02.565Z,94.70
2022-12-20T10:50:30.877Z,94.70
2022-12-20T10:53:27.283Z,94.50
2022-12-20T10:56:18.659Z,95.20
2022-12-20T11:01:59.691Z,93.90
2022-12-20T11:04:30.210Z,94.10
2022-12-20T11:07:02.028Z,94.10
2022-12-20T11:09:37.836Z,94.10
2022-12-20T11:13:23.951Z,94.00
2022-12-20T11:16:01.484Z,94.30
2022-12-20T11:19:59.159Z,94.10
2022-12-20T11:28:26.307Z,94.10
2022-12-20T11:31:10.154Z,95.60
2022-12-20T11:34:10.509Z,94.20
2022-12-20T11:36:53.861Z,94.60
2022-12-20T11:39:33.210Z,94.40
2022-12-20T11:45:35.285Z,94.20
2022-12-20T11:48:32.301Z,94.60
2022-12-20T11:51:05.093Z,94.60
2022-12-20T11:57:55.226Z,94.40
2022-12-20T12:00:26.406Z,94.80
2022-12-20T12:03:00.662Z,94.80
2022-12-20T12:07:30.752Z,94.50
2022-12-20T12:10:24.681Z,94.80
2022-12-20T12:16:10.340Z,94.60
2022-12-20T12:20:36.291Z,94.80
2022-12-20T12:23:12.062Z,95.00
2022-12-20T12:38:41.457Z,94.90
2022-12-20T12:41:36.409Z,96.20
2022-12-20T12:44:29.291Z,95.90
2022-12-20T12:47:03.127Z,95.90
2022-12-20T12:49:41.431Z,95.10
2022-12-20T12:54:56.721Z,94.90
2022-12-20T13:01:57.813Z,94.90
2022-12-20T13:04:30.010Z,95.00
2022-12-20T13:07:01.764Z,94.90
2022-12-20T13:09:43.910Z,94.90
2022-12-20T13:13:27.936Z,94.80
2022-12-20T13:16:48.717Z,95.10
2022-12-20T13:33:40.232Z,95.10
2022-12-20T13:39:51.726Z,95.30
2022-12-20T13:42:34.147Z,95.30
2022-12-20T13:45:05.420Z,95.40
2022-12-20T13:49:29.390Z,95.20
2022-12-20T13:54:27.606Z,95.20
2022-12-20T13:58:17.330Z,95.30
2022-12-20T14:00:50.511Z,95.50
2022-12-20T14:03:26.031Z,95.40
2022-12-20T14:09:58.942Z,95.20
2022-12-20T14:12:32.892Z,95.60
2022-12-20T14:15:24.997Z,95.80
2022-12-20T14:17:53.079Z,95.50
2022-12-20T14:22:32.394Z,95.30
2022-12-20T14:28:37.382Z,95.20
2022-12-20T14:31:25.590Z,95.70
2022-12-20T14:34:02.198Z,95.60
2022-12-20T14:37:34.597Z,95.30
2022-12-20T14:41:45.027Z,95.40
2022-12-20T14:45:29.292Z,95.30
2022-12-20T14:48:01.842Z,95.30
2022-12-20T14:50:32.776Z,95.40
2022-12-20T14:53:01.302Z,95.40
2022-12-20T14:55:37.899Z,95.30
2022-12-20T15:00:59.817Z,95.10
2022-12-20T15:06:06.201Z,95.10
2022-12-20T15:08:34.923Z,95.30
2022-12-20T15:11:13.400Z,95.30
2022-12-20T15:13:45.969Z,95.30
2022-12-20T15:16:19.807Z,95.30
2022-12-20T15:18:51.639Z,95.20
2022-12-20T15:21:29.228Z,94.80
2022-12-20T15:24:02.196Z,95.30
2022-12-20T15:26:31.548Z,95.20
2022-12-20T15:29:02.015Z,95.20
2022-12-20T15:31:36.043Z,95.20
2022-12-20T15:34:11.571Z,95.20
2022-12-20T15:39:14.283Z,95.10
2022-12-20T15:41:50.237Z,95.10
2022-12-20T15:44:22.622Z,95.10
2022-12-20T15:46:55.227Z,95.10
2022-12-20T15:54:41.958Z,94.90
2022-12-20T15:57:14.526Z,95.20
2022-12-20T16:00:02.969Z,95.20
2022-12-20T16:02:33.503Z,95.20
2022-12-20T16:05:04.744Z,95.20
2022-12-20T16:07:32.789Z,95.20
2022-12-20T16:10:03.015Z,95.10
2022-12-20T16:12:34.153Z,95.20
2022-12-20T16:15:02.157Z,95.20
2022-12-20T16:17:30.159Z,95.20
2022-12-20T16:20:00.657Z,95.20
2022-12-20T16:22:28.745Z,95.40
2022-12-20T16:24:58.962Z,95.20
2022-12-20T16:30:55.153Z,95.00
2022-12-20T16:33:28.057Z,95.20
2022-12-20T16:36:00.866Z,95.10
2022-12-20T16:41:28.447Z,94.90
2022-12-20T16:44:00.982Z,95.10
2022-12-20T16:46:33.681Z,95.20
2022-12-20T16:49:03.430Z,95.20
2022-12-20T16:51:33.618Z,95.10
2022-12-20T16:54:19.162Z,95.20
2022-12-20T16:56:56.008Z,95.20
2022-12-20T16:59:25.159Z,95.20
2022-12-20T17:01:56.368Z,95.20
2022-12-20T17:04:26.212Z,95.30
2022-12-20T17:06:56.568Z,95.20
2022-12-20T17:09:24.589Z,95.30
2022-12-20T17:11:56.797Z,95.20
2022-12-20T17:14:24.781Z,95.20
2022-12-20T17:16:58.861Z,95.20
2022-12-20T17:19:26.925Z,95.10
2022-12-20T17:28:07.035Z,95.10
2022-12-20T17:30:35.022Z,95.50
2022-12-20T17:33:03.111Z,95.50
2022-12-20T17:35:34.403Z,95.40
2022-12-20T17:38:05.405Z,95.40
2022-12-20T17:40:33.412Z,95.30
2022-12-20T17:43:01.437Z,95.30
2022-12-20T17:45:36.041Z,95.30
2022-12-20T17:48:04.183Z,95.30
2022-12-20T17:50:32.201Z,95.30
2022-12-20T17:53:00.206Z,95.20
2022-12-20T17:55:29.641Z,95.20
2022-12-20T17:57:57.772Z,95.20
2022-12-20T18:00:34.597Z,95.20
2022-12-20T18:03:19.907Z,95.20
2022-12-20T18:06:03.843Z,95.60
2022-12-20T18:08:44.607Z,95.10
2022-12-20T18:11:55.617Z,95.10
2022-12-20T18:14:23.569Z,95.20
2022-12-20T18:16:56.049Z,95.20
2022-12-20T18:21:24.543Z,95.10
2022-12-20T18:23:53.027Z,96.10
2022-12-20T18:26:22.832Z,95.20
2022-12-20T18:28:54.448Z,95.20
2022-12-20T18:31:25.025Z,95.20
2022-12-20T18:33:57.727Z,95.30
2022-12-20T18:36:31.817Z,95.00
2022-12-20T18:40:46.852Z,95.10
2022-12-20T18:43:14.689Z,95.30
2022-12-20T18:47:02.804Z,95.30
2022-12-20T18:49:30.882Z,95.30
2022-12-20T18:51:59.972Z,95.30
2022-12-20T18:54:32.551Z,95.30
2022-12-20T18:58:23.883Z,95.20
2022-12-20T19:03:27.997Z,95.10
2022-12-20T19:05:56.981Z,95.30
2022-12-20T19:08:26.282Z,95.40
2022-12-20T19:13:53.807Z,95.20
2022-12-20T19:19:04.503Z,95.20
2022-12-20T19:21:34.135Z,95.50
2022-12-20T19:24:05.168Z,95.40
2022-12-20T19:26:33.388Z,95.50
2022-12-20T19:29:01.494Z,95.30
2022-12-20T19:34:24.639Z,95.20
2022-12-20T19:36:52.871Z,95.40
2022-12-20T19:39:24.667Z,95.40
2022-12-20T19:42:22.521Z,96.20
2022-12-20T19:44:50.109Z,95.20
2022-12-20T19:47:21.582Z,95.40
2022-12-20T19:50:05.893Z,95.30
2022-12-20T19:52:35.228Z,95.40
2022-12-20T19:57:40.613Z,95.20
2022-12-20T20:00:09.879Z,95.40
2022-12-20T20:02:40.459Z,95.40
2022-12-20T20:08:24.912Z,95.20
2022-12-20T20:11:07.192Z,95.50
2022-12-20T20:13:37.424Z,95.40
2022-12-20T20:16:06.663Z,95.40
2022-12-20T20:18:35.955Z,95.40
2022-12-20T20:21:10.798Z,95.40
2022-12-20T20:23:40.486Z,95.50
2022-12-20T20:28:45.340Z,95.10
2022-12-20T20:31:16.061Z,95.50
2022-12-20T20:37:42.827Z,95.20
2022-12-20T20:40:12.592Z,95.50
2022-12-20T20:45:25.236Z,95.40
2022-12-20T20:47:53.143Z,95.50
2022-12-20T20:53:53.512Z,95.20
2022-12-20T20:56:37.332Z,95.40
2022-12-20T20:59:10.578Z,95.60
2022-12-20T21:01:50.672Z,95.50
2022-12-20T21:04:27.386Z,95.60
2022-12-20T21:09:25.265Z,95.30
2022-12-20T21:11:54.717Z,95.50
2022-12-20T21:14:43.811Z,95.60
2022-12-20T21:17:13.477Z,95.50
2022-12-20T21:19:42.316Z,95.50
2022-12-20T21:22:52.228Z,95.40
2022-12-20T21:25:22.970Z,95.50
2022-12-20T21:27:52.428Z,95.30
2022-12-20T21:31:13.002Z,95.40
2022-12-20T21:33:41.271Z,95.60
2022-12-20T21:36:12.701Z,95.50
2022-12-20T21:38:41.182Z,95.60
2022-12-20T21:41:13.344Z,95.50
2022-12-20T21:43:41.332Z,95.50
2022-12-20T21:48:59.675Z,95.20
2022-12-20T21:53:04.865Z,95.40
2022-12-20T21:55:32.683Z,95.40
2022-12-20T21:58:06.763Z,95.40
2022-12-20T22:00:34.646Z,95.40
2022-12-20T22:04:28.625Z,95.20
2022-12-20T22:11:58.111Z,95.00
2022-12-20T22:14:26.112Z,95.40
2022-12-20T22:16:55.220Z,95.40
2022-12-20T22:21:58.449Z,95.20
2022-12-20T22:24:26.683Z,95.30
2022-12-20T22:26:56.246Z,95.30
2022-12-20T22:31:06.933Z,95.00
2022-12-20T22:33:34.787Z,95.30
2022-12-20T22:38:52.523Z,95.10
2022-12-20T22:41:25.464Z,95.20
2022-12-20T22:43:53.852Z,95.10
2022-12-20T22:46:30.524Z,95.20
2022-12-20T22:49:01.259Z,95.40
2022-12-20T22:53:32.370Z,95.00
2022-12-20T23:00:15.980Z,94.90
2022-12-20T23:02:43.977Z,95.20
2022-12-20T23:05:12.296Z,95.20
2022-12-20T23:07:40.156Z,95.20
2022-12-20T23:10:31.452Z,95.10
2022-12-20T23:16:02.143Z,94.90
2022-12-20T23:18:30.078Z,95.10
2022-12-20T23:21:15.311Z,95.00
2022-12-20T23:23:50.922Z,95.10
2022-12-20T23:26:24.169Z,94.90
2022-12-20T23:35:19.919Z,94.90
2022-12-20T23:37:55.853Z,95.10
2022-12-20T23:40:23.661Z,95.20
2022-12-20T23:42:55.463Z,95.00
2022-12-20T23:45:26.292Z,95.00
2022-12-20T23:57:14.536Z,94.60
2022-12-20T23:59:42.362Z,95.00
